sensor_id;sensor_type;location;lat;lon;timestamp;pressure;altitude;pressure_sealevel;temperature;humidity
63343;BME280;49465;57.664;39.686;2023-04-27T02:32:48;99550.69;;;12.69;72.02
63343;BME280;49465;57.664;39.686;2023-04-27T02:35:17;99557.75;;;12.99;70.30
63343;BME280;49465;57.664;39.686;2023-04-27T02:37:46;99561.44;;;13.18;69.38
63343;BME280;49465;57.664;39.686;2023-04-27T02:40:12;99563.97;;;13.29;68.40
63343;BME280;49465;57.664;39.686;2023-04-27T02:42:39;99565.13;;;13.36;68.43
63343;BME280;49465;57.664;39.686;2023-04-27T02:45:06;99571.25;;;13.47;67.90
63343;BME280;49465;57.664;39.686;2023-04-27T02:47:33;99570.41;;;13.46;67.64
63343;BME280;49465;57.664;39.686;2023-04-27T02:50:00;99580.28;;;13.54;67.59
63343;BME280;49465;57.664;39.686;2023-04-27T02:52:27;99577.38;;;13.57;67.44
63343;BME280;49465;57.664;39.686;2023-04-27T02:54:56;99586.69;;;13.61;67.08
63343;BME280;49465;57.664;39.686;2023-04-27T02:57:27;99577.09;;;13.60;66.96
63343;BME280;49465;57.664;39.686;2023-04-27T02:59:56;99585.44;;;13.65;66.83
63343;BME280;49465;57.664;39.686;2023-04-27T03:02:22;99581.00;;;13.65;66.84
63343;BME280;49465;57.664;39.686;2023-04-27T03:04:55;99594.63;;;13.80;66.45
63343;BME280;49465;57.664;39.686;2023-04-27T03:07:24;99595.56;;;13.79;65.77
63343;BME280;49465;57.664;39.686;2023-04-27T03:09:50;99595.84;;;13.76;65.87
63343;BME280;49465;57.664;39.686;2023-04-27T03:12:17;99593.91;;;13.78;66.02
63343;BME280;49465;57.664;39.686;2023-04-27T03:14:49;99605.72;;;13.84;66.34
63343;BME280;49465;57.664;39.686;2023-04-27T03:17:16;99597.25;;;13.80;66.69
63343;BME280;49465;57.664;39.686;2023-04-27T03:19:42;99608.03;;;13.77;66.80
63343;BME280;49465;57.664;39.686;2023-04-27T03:22:08;99610.44;;;13.80;66.50
63343;BME280;49465;57.664;39.686;2023-04-27T03:24:35;99615.97;;;13.87;66.45
63343;BME280;49465;57.664;39.686;2023-04-27T03:27:07;99620.44;;;13.96;66.64
63343;BME280;49465;57.664;39.686;2023-04-27T03:29:33;99611.53;;;13.88;65.86
63343;BME280;49465;57.664;39.686;2023-04-27T03:31:59;99620.97;;;13.90;66.40
63343;BME280;49465;57.664;39.686;2023-04-27T03:34:25;99620.72;;;14.03;65.72
63343;BME280;49465;57.664;39.686;2023-04-27T03:36:52;99619.75;;;13.94;65.58
63343;BME280;49465;57.664;39.686;2023-04-27T03:39:22;99620.00;;;14.01;65.90
63343;BME280;49465;57.664;39.686;2023-04-27T03:41:48;99624.72;;;14.07;65.45
63343;BME280;49465;57.664;39.686;2023-04-27T03:44:15;99635.72;;;14.12;65.40
63343;BME280;49465;57.664;39.686;2023-04-27T03:46:41;99638.09;;;14.15;65.55
63343;BME280;49465;57.664;39.686;2023-04-27T03:49:07;99636.28;;;14.16;65.71
63343;BME280;49465;57.664;39.686;2023-04-27T03:51:34;99634.59;;;14.15;65.16
63343;BME280;49465;57.664;39.686;2023-04-27T03:54:03;99649.59;;;14.24;65.54
63343;BME280;49465;57.664;39.686;2023-04-27T03:56:32;99650.56;;;14.33;65.42
63343;BME280;49465;57.664;39.686;2023-04-27T03:58:59;99647.66;;;14.26;64.91
63343;BME280;49465;57.664;39.686;2023-04-27T04:01:28;99649.03;;;14.30;64.75
63343;BME280;49465;57.664;39.686;2023-04-27T04:03:54;99654.31;;;14.30;64.65
63343;BME280;49465;57.664;39.686;2023-04-27T04:06:23;99650.41;;;14.34;64.23
63343;BME280;49465;57.664;39.686;2023-04-27T04:08:50;99652.66;;;14.29;64.45
63343;BME280;49465;57.664;39.686;2023-04-27T04:11:16;99664.47;;;14.44;64.35
63343;BME280;49465;57.664;39.686;2023-04-27T04:13:46;99657.50;;;14.34;64.62
63343;BME280;49465;57.664;39.686;2023-04-27T04:16:18;99663.47;;;14.46;64.76
63343;BME280;49465;57.664;39.686;2023-04-27T04:18:47;99675.19;;;14.62;64.39
63343;BME280;49465;57.664;39.686;2023-04-27T04:21:13;99662.56;;;14.56;63.98
63343;BME280;49465;57.664;39.686;2023-04-27T04:23:40;99667.50;;;14.50;64.73
63343;BME280;49465;57.664;39.686;2023-04-27T04:26:06;99675.97;;;14.53;64.59
63343;BME280;49465;57.664;39.686;2023-04-27T04:28:38;99682.06;;;14.54;64.79
63343;BME280;49465;57.664;39.686;2023-04-27T04:31:08;99678.06;;;14.69;63.50
63343;BME280;49465;57.664;39.686;2023-04-27T04:33:37;99685.41;;;14.56;64.65
63343;BME280;49465;57.664;39.686;2023-04-27T04:36:04;99681.28;;;14.63;63.75
63343;BME280;49465;57.664;39.686;2023-04-27T04:38:33;99694.16;;;14.66;64.29
63343;BME280;49465;57.664;39.686;2023-04-27T04:41:04;99698.22;;;14.80;65.06
63343;BME280;49465;57.664;39.686;2023-04-27T04:43:32;99699.06;;;14.71;64.38
63343;BME280;49465;57.664;39.686;2023-04-27T04:46:01;99694.16;;;14.76;63.98
63343;BME280;49465;57.664;39.686;2023-04-27T04:48:28;99686.41;;;14.74;63.99
63343;BME280;49465;57.664;39.686;2023-04-27T04:50:54;99699.44;;;14.86;63.80
63343;BME280;49465;57.664;39.686;2023-04-27T04:53:22;99702.06;;;14.86;64.17
63343;BME280;49465;57.664;39.686;2023-04-27T04:55:48;99703.88;;;14.95;63.75
63343;BME280;49465;57.664;39.686;2023-04-27T04:58:14;99705.13;;;15.00;63.54
63343;BME280;49465;57.664;39.686;2023-04-27T05:00:41;99709.16;;;15.05;63.02
63343;BME280;49465;57.664;39.686;2023-04-27T05:03:16;99709.25;;;15.13;63.53
63343;BME280;49465;57.664;39.686;2023-04-27T05:05:47;99715.75;;;15.28;63.38
63343;BME280;49465;57.664;39.686;2023-04-27T05:08:19;99712.31;;;15.28;63.48
63343;BME280;49465;57.664;39.686;2023-04-27T05:10:51;99716.16;;;15.43;62.56
63343;BME280;49465;57.664;39.686;2023-04-27T05:13:21;99719.63;;;15.43;62.79
63343;BME280;49465;57.664;39.686;2023-04-27T05:15:49;99722.00;;;15.47;62.58
63343;BME280;49465;57.664;39.686;2023-04-27T05:18:18;99721.53;;;15.51;63.13
63343;BME280;49465;57.664;39.686;2023-04-27T05:20:47;99726.91;;;15.69;62.98
63343;BME280;49465;57.664;39.686;2023-04-27T05:23:13;99728.03;;;15.67;62.13
63343;BME280;49465;57.664;39.686;2023-04-27T05:25:42;99730.81;;;15.65;61.59
63343;BME280;49465;57.664;39.686;2023-04-27T05:28:14;99739.28;;;15.78;61.87
63343;BME280;49465;57.664;39.686;2023-04-27T05:30:41;99731.34;;;15.78;61.43
63343;BME280;49465;57.664;39.686;2023-04-27T05:33:07;99736.59;;;15.88;61.18
63343;BME280;49465;57.664;39.686;2023-04-27T05:35:34;99733.50;;;15.93;61.43
63343;BME280;49465;57.664;39.686;2023-04-27T05:38:03;99738.47;;;16.06;60.50
63343;BME280;49465;57.664;39.686;2023-04-27T05:40:29;99746.94;;;16.09;60.87
63343;BME280;49465;57.664;39.686;2023-04-27T05:42:59;99754.88;;;16.09;60.64
63343;BME280;49465;57.664;39.686;2023-04-27T05:45:28;99750.41;;;16.10;60.16
63343;BME280;49465;57.664;39.686;2023-04-27T05:47:54;99751.91;;;16.12;60.08
63343;BME280;49465;57.664;39.686;2023-04-27T05:50:26;99746.47;;;16.14;60.88
63343;BME280;49465;57.664;39.686;2023-04-27T05:52:52;99757.78;;;16.06;60.96
63343;BME280;49465;57.664;39.686;2023-04-27T05:55:24;99758.06;;;16.03;60.63
63343;BME280;49465;57.664;39.686;2023-04-27T05:57:51;99756.91;;;16.15;59.97
63343;BME280;49465;57.664;39.686;2023-04-27T06:00:22;99753.41;;;16.15;60.17
63343;BME280;49465;57.664;39.686;2023-04-27T06:02:51;99758.44;;;16.18;60.27
63343;BME280;49465;57.664;39.686;2023-04-27T06:05:17;99752.84;;;16.21;60.03
63343;BME280;49465;57.664;39.686;2023-04-27T06:07:47;99757.97;;;16.23;59.57
63343;BME280;49465;57.664;39.686;2023-04-27T06:10:25;99762.13;;;16.53;59.22
63343;BME280;49465;57.664;39.686;2023-04-27T06:12:52;99752.88;;;16.39;59.52
63343;BME280;49465;57.664;39.686;2023-04-27T06:15:20;99759.38;;;16.45;59.25
63343;BME280;49465;57.664;39.686;2023-04-27T06:17:49;99762.66;;;16.56;59.62
63343;BME280;49465;57.664;39.686;2023-04-27T06:20:16;99759.00;;;16.75;58.65
63343;BME280;49465;57.664;39.686;2023-04-27T06:22:43;99762.88;;;16.81;58.11
63343;BME280;49465;57.664;39.686;2023-04-27T06:25:12;99766.06;;;16.85;58.28
63343;BME280;49465;57.664;39.686;2023-04-27T06:27:39;99772.66;;;16.98;58.36
63343;BME280;49465;57.664;39.686;2023-04-27T06:30:06;99788.31;;;16.92;57.83
63343;BME280;49465;57.664;39.686;2023-04-27T06:32:35;99780.31;;;17.02;57.25
63343;BME280;49465;57.664;39.686;2023-04-27T06:35:02;99787.25;;;17.03;57.20
63343;BME280;49465;57.664;39.686;2023-04-27T06:37:31;99787.84;;;17.14;56.89
63343;BME280;49465;57.664;39.686;2023-04-27T06:39:57;99792.31;;;17.14;57.18
63343;BME280;49465;57.664;39.686;2023-04-27T06:42:24;99787.84;;;17.14;56.79
63343;BME280;49465;57.664;39.686;2023-04-27T06:44:53;99793.38;;;17.21;56.06
63343;BME280;49465;57.664;39.686;2023-04-27T06:47:23;99803.78;;;17.23;56.11
63343;BME280;49465;57.664;39.686;2023-04-27T06:49:50;99796.81;;;17.39;56.07
63343;BME280;49465;57.664;39.686;2023-04-27T06:52:19;99802.28;;;17.64;55.63
63343;BME280;49465;57.664;39.686;2023-04-27T06:54:45;99792.94;;;17.60;55.45
63343;BME280;49465;57.664;39.686;2023-04-27T06:57:17;99793.38;;;17.73;55.27
63343;BME280;49465;57.664;39.686;2023-04-27T06:59:43;99803.34;;;17.79;55.04
63343;BME280;49465;57.664;39.686;2023-04-27T07:02:10;99803.78;;;17.93;54.88
63343;BME280;49465;57.664;39.686;2023-04-27T07:04:39;99813.44;;;18.02;54.88
63343;BME280;49465;57.664;39.686;2023-04-27T07:07:08;99812.75;;;17.92;55.14
63343;BME280;49465;57.664;39.686;2023-04-27T07:09:35;99805.13;;;17.97;54.86
63343;BME280;49465;57.664;39.686;2023-04-27T07:12:07;99809.59;;;17.96;53.87
63343;BME280;49465;57.664;39.686;2023-04-27T07:14:36;99821.81;;;18.15;53.94
63343;BME280;49465;57.664;39.686;2023-04-27T07:17:02;99823.44;;;18.08;53.75
63343;BME280;49465;57.664;39.686;2023-04-27T07:19:29;99814.66;;;18.16;53.74
63343;BME280;49465;57.664;39.686;2023-04-27T07:21:55;99821.34;;;18.28;53.67
63343;BME280;49465;57.664;39.686;2023-04-27T07:24:22;99819.94;;;18.50;53.68
63343;BME280;49465;57.664;39.686;2023-04-27T07:26:52;99823.97;;;18.71;53.21
63343;BME280;49465;57.664;39.686;2023-04-27T07:29:29;99828.34;;;18.88;52.22
63343;BME280;49465;57.664;39.686;2023-04-27T07:31:55;99826.53;;;18.97;51.78
63343;BME280;49465;57.664;39.686;2023-04-27T07:34:22;99827.69;;;19.11;52.03
63343;BME280;49465;57.664;39.686;2023-04-27T07:36:52;99829.53;;;19.10;51.63
63343;BME280;49465;57.664;39.686;2023-04-27T07:39:19;99831.06;;;19.21;51.81
63343;BME280;49465;57.664;39.686;2023-04-27T07:41:45;99831.69;;;19.15;51.43
63343;BME280;49465;57.664;39.686;2023-04-27T07:44:13;99831.88;;;19.30;51.27
63343;BME280;49465;57.664;39.686;2023-04-27T07:46:40;99832.69;;;19.47;51.10
63343;BME280;49465;57.664;39.686;2023-04-27T07:49:09;99845.00;;;19.72;50.86
63343;BME280;49465;57.664;39.686;2023-04-27T07:51:41;99838.66;;;19.73;50.12
63343;BME280;49465;57.664;39.686;2023-04-27T07:54:11;99837.81;;;19.81;49.95
63343;BME280;49465;57.664;39.686;2023-04-27T07:56:41;99844.44;;;20.02;49.90
63343;BME280;49465;57.664;39.686;2023-04-27T07:59:08;99836.63;;;20.00;49.23
63343;BME280;49465;57.664;39.686;2023-04-27T08:01:41;99849.56;;;20.11;49.10
63343;BME280;49465;57.664;39.686;2023-04-27T08:04:07;99840.81;;;20.34;48.82
63343;BME280;49465;57.664;39.686;2023-04-27T08:06:34;99840.56;;;20.52;48.28
63343;BME280;49465;57.664;39.686;2023-04-27T08:09:00;99842.97;;;20.30;48.79
63343;BME280;49465;57.664;39.686;2023-04-27T08:11:30;99848.59;;;20.44;48.61
63343;BME280;49465;57.664;39.686;2023-04-27T08:13:57;99843.41;;;20.50;48.97
63343;BME280;49465;57.664;39.686;2023-04-27T08:16:32;99861.59;;;20.78;49.13
63343;BME280;49465;57.664;39.686;2023-04-27T08:18:58;99851.44;;;20.82;47.31
63343;BME280;49465;57.664;39.686;2023-04-27T08:21:26;99856.75;;;20.82;47.17
63343;BME280;49465;57.664;39.686;2023-04-27T08:23:53;99850.34;;;20.91;47.47
63343;BME280;49465;57.664;39.686;2023-04-27T08:26:19;99849.31;;;21.00;47.35
63343;BME280;49465;57.664;39.686;2023-04-27T08:28:50;99845.63;;;21.24;47.07
63343;BME280;49465;57.664;39.686;2023-04-27T08:31:23;99840.34;;;21.39;46.70
63343;BME280;49465;57.664;39.686;2023-04-27T08:33:53;99848.59;;;21.52;45.55
63343;BME280;49465;57.664;39.686;2023-04-27T08:36:23;99839.22;;;21.57;46.01
63343;BME280;49465;57.664;39.686;2023-04-27T08:38:50;99840.16;;;21.79;45.91
63343;BME280;49465;57.664;39.686;2023-04-27T08:41:23;99841.44;;;21.83;46.04
63343;BME280;49465;57.664;39.686;2023-04-27T08:43:50;99840.28;;;22.00;46.05
63343;BME280;49465;57.664;39.686;2023-04-27T08:48:52;99844.22;;;22.49;45.51
63343;BME280;49465;57.664;39.686;2023-04-27T08:51:22;99844.69;;;22.53;43.77
63343;BME280;49465;57.664;39.686;2023-04-27T08:53:58;99837.84;;;22.86;43.42
63343;BME280;49465;57.664;39.686;2023-04-27T08:56:26;99839.25;;;22.82;43.74
63343;BME280;49465;57.664;39.686;2023-04-27T08:58:57;99842.31;;;23.01;44.58
63343;BME280;49465;57.664;39.686;2023-04-27T09:01:24;99843.53;;;22.98;44.31
63343;BME280;49465;57.664;39.686;2023-04-27T09:03:58;99850.22;;;23.09;43.86
63343;BME280;49465;57.664;39.686;2023-04-27T09:06:31;99840.38;;;23.09;43.03
63343;BME280;49465;57.664;39.686;2023-04-27T09:09:02;99845.13;;;23.14;42.79
63343;BME280;49465;57.664;39.686;2023-04-27T09:11:36;99848.56;;;23.29;42.13
63343;BME280;49465;57.664;39.686;2023-04-27T09:14:18;99846.13;;;23.56;43.54
63343;BME280;49465;57.664;39.686;2023-04-27T09:16:57;99849.09;;;23.68;43.36
63343;BME280;49465;57.664;39.686;2023-04-27T09:19:33;99848.88;;;23.69;41.97
63343;BME280;49465;57.664;39.686;2023-04-27T09:22:20;99852.44;;;23.77;43.19
63343;BME280;49465;57.664;39.686;2023-04-27T09:24:56;99860.59;;;23.90;41.18
63343;BME280;49465;57.664;39.686;2023-04-27T09:27:42;99856.16;;;24.11;41.66
63343;BME280;49465;57.664;39.686;2023-04-27T09:30:22;99861.44;;;24.32;42.11
63343;BME280;49465;57.664;39.686;2023-04-27T09:32:57;99862.22;;;24.19;42.07
63343;BME280;49465;57.664;39.686;2023-04-27T09:35:32;99859.56;;;24.26;40.81
63343;BME280;49465;57.664;39.686;2023-04-27T09:38:10;99864.09;;;24.25;41.24
63343;BME280;49465;57.664;39.686;2023-04-27T09:40:47;99864.91;;;24.26;39.72
63343;BME280;49465;57.664;39.686;2023-04-27T09:43:20;99867.28;;;24.49;40.26
63343;BME280;49465;57.664;39.686;2023-04-27T09:45:53;99869.16;;;24.48;36.99
63343;BME280;49465;57.664;39.686;2023-04-27T09:48:27;99867.34;;;24.56;39.62
63343;BME280;49465;57.664;39.686;2023-04-27T09:50:53;99865.63;;;24.48;39.78
63343;BME280;49465;57.664;39.686;2023-04-27T09:53:40;99871.34;;;24.80;39.95
63343;BME280;49465;57.664;39.686;2023-04-27T10:02:07;99872.44;;;25.05;37.62
63343;BME280;49465;57.664;39.686;2023-04-27T10:07:13;99878.69;;;25.26;37.84
63343;BME280;49465;57.664;39.686;2023-04-27T10:09:46;99883.63;;;25.22;38.53
63343;BME280;49465;57.664;39.686;2023-04-27T10:12:36;99883.66;;;25.62;36.95
63343;BME280;49465;57.664;39.686;2023-04-27T10:15:13;99887.16;;;25.63;37.70
63343;BME280;49465;57.664;39.686;2023-04-27T10:17:48;99892.31;;;25.58;38.94
63343;BME280;49465;57.664;39.686;2023-04-27T10:20:15;99892.94;;;25.47;38.00
63343;BME280;49465;57.664;39.686;2023-04-27T10:22:49;99894.81;;;25.73;37.68
63343;BME280;49465;57.664;39.686;2023-04-27T10:30:21;99890.03;;;25.95;37.67
63343;BME280;49465;57.664;39.686;2023-04-27T10:32:53;99881.75;;;26.10;34.81
63343;BME280;49465;57.664;39.686;2023-04-27T10:35:21;99890.66;;;26.10;37.45
63343;BME280;49465;57.664;39.686;2023-04-27T10:37:50;99889.78;;;26.23;36.71
63343;BME280;49465;57.664;39.686;2023-04-27T10:40:21;99886.88;;;26.31;35.99
63343;BME280;49465;57.664;39.686;2023-04-27T10:43:14;99891.25;;;26.77;36.27
63343;BME280;49465;57.664;39.686;2023-04-27T10:45:43;99883.91;;;26.59;35.90
63343;BME280;49465;57.664;39.686;2023-04-27T10:48:13;99890.91;;;26.67;35.63
63343;BME280;49465;57.664;39.686;2023-04-27T10:50:41;99885.56;;;26.60;36.31
63343;BME280;49465;57.664;39.686;2023-04-27T10:53:12;99901.47;;;26.55;34.92
63343;BME280;49465;57.664;39.686;2023-04-27T10:55:45;99892.09;;;26.71;35.72
63343;BME280;49465;57.664;39.686;2023-04-27T10:58:14;99890.50;;;26.63;35.92
63343;BME280;49465;57.664;39.686;2023-04-27T11:00:47;99891.75;;;26.61;35.11
63343;BME280;49465;57.664;39.686;2023-04-27T11:03:22;99889.56;;;26.90;32.90
63343;BME280;49465;57.664;39.686;2023-04-27T11:05:59;99889.56;;;26.83;35.34
63343;BME280;49465;57.664;39.686;2023-04-27T11:08:30;99893.19;;;27.02;35.30
63343;BME280;49465;57.664;39.686;2023-04-27T11:11:00;99885.38;;;26.94;34.73
63343;BME280;49465;57.664;39.686;2023-04-27T11:13:30;99886.88;;;26.90;34.66
63343;BME280;49465;57.664;39.686;2023-04-27T11:16:03;99895.47;;;27.05;33.95
63343;BME280;49465;57.664;39.686;2023-04-27T11:18:31;99898.31;;;27.10;34.52
63343;BME280;49465;57.664;39.686;2023-04-27T11:21:17;99902.88;;;27.48;35.84
63343;BME280;49465;57.664;39.686;2023-04-27T11:23:50;99893.06;;;27.22;34.65
63343;BME280;49465;57.664;39.686;2023-04-27T11:26:18;99906.06;;;27.32;34.52
63343;BME280;49465;57.664;39.686;2023-04-27T11:29:08;99901.19;;;27.47;34.10
63343;BME280;49465;57.664;39.686;2023-04-27T11:31:42;99901.59;;;27.51;34.37
63343;BME280;49465;57.664;39.686;2023-04-27T11:34:24;99905.03;;;27.83;34.93
63343;BME280;49465;57.664;39.686;2023-04-27T11:37:06;99905.28;;;27.81;33.31
63343;BME280;49465;57.664;39.686;2023-04-27T11:39:36;99898.91;;;27.76;33.51
63343;BME280;49465;57.664;39.686;2023-04-27T11:42:20;99898.75;;;28.14;34.42
63343;BME280;49465;57.664;39.686;2023-04-27T11:44:55;99910.41;;;28.08;33.18
63343;BME280;49465;57.664;39.686;2023-04-27T11:47:28;99888.03;;;28.26;32.00
63343;BME280;49465;57.664;39.686;2023-04-27T11:50:05;99902.13;;;28.28;31.12
63343;BME280;49465;57.664;39.686;2023-04-27T11:52:36;99896.28;;;28.31;32.62
63343;BME280;49465;57.664;39.686;2023-04-27T11:55:08;99883.69;;;28.44;32.83
63343;BME280;49465;57.664;39.686;2023-04-27T11:57:43;99894.41;;;28.50;32.66
63343;BME280;49465;57.664;39.686;2023-04-27T12:00:10;99895.75;;;28.41;32.38
63343;BME280;49465;57.664;39.686;2023-04-27T12:02:42;99904.34;;;28.50;32.82
63343;BME280;49465;57.664;39.686;2023-04-27T12:05:09;99897.75;;;28.52;32.01
63343;BME280;49465;57.664;39.686;2023-04-27T12:07:37;99892.69;;;28.56;31.20
63343;BME280;49465;57.664;39.686;2023-04-27T12:10:09;99891.94;;;28.67;32.06
63343;BME280;49465;57.664;39.686;2023-04-27T12:12:49;99900.38;;;28.89;32.74
63343;BME280;49465;57.664;39.686;2023-04-27T12:15:22;99893.91;;;28.90;31.65
63343;BME280;49465;57.664;39.686;2023-04-27T12:17:49;99889.34;;;28.91;31.57
63343;BME280;49465;57.664;39.686;2023-04-27T12:20:15;99888.53;;;28.90;31.45
63343;BME280;49465;57.664;39.686;2023-04-27T12:22:44;99888.34;;;29.04;32.73
63343;BME280;49465;57.664;39.686;2023-04-27T12:25:10;99887.81;;;28.95;31.29
63343;BME280;49465;57.664;39.686;2023-04-27T12:27:40;99890.44;;;29.02;31.52
63343;BME280;49465;57.664;39.686;2023-04-27T12:30:07;99878.00;;;29.01;31.00
63343;BME280;49465;57.664;39.686;2023-04-27T12:32:45;99875.72;;;29.16;31.48
63343;BME280;49465;57.664;39.686;2023-04-27T12:35:16;99884.13;;;29.08;30.78
63343;BME280;49465;57.664;39.686;2023-04-27T12:37:52;99885.94;;;29.26;31.36
63343;BME280;49465;57.664;39.686;2023-04-27T12:40:18;99885.41;;;29.05;30.32
63343;BME280;49465;57.664;39.686;2023-04-27T12:42:50;99885.94;;;29.26;29.71
63343;BME280;49465;57.664;39.686;2023-04-27T12:45:16;99876.56;;;29.28;30.51
63343;BME280;49465;57.664;39.686;2023-04-27T12:47:42;99874.91;;;29.15;29.89
63343;BME280;49465;57.664;39.686;2023-04-27T12:50:09;99872.00;;;29.29;29.29
63343;BME280;49465;57.664;39.686;2023-04-27T12:52:41;99870.84;;;29.48;30.24
63343;BME280;49465;57.664;39.686;2023-04-27T12:55:11;99872.25;;;29.51;30.44
63343;BME280;49465;57.664;39.686;2023-04-27T12:57:41;99876.59;;;29.52;30.44
63343;BME280;49465;57.664;39.686;2023-04-27T13:00:07;99876.13;;;29.67;29.89
63343;BME280;49465;57.664;39.686;2023-04-27T13:02:35;99875.81;;;29.75;29.97
63343;BME280;49465;57.664;39.686;2023-04-27T13:05:02;99878.75;;;29.85;30.39
63343;BME280;49465;57.664;39.686;2023-04-27T13:07:29;99877.47;;;29.88;29.65
63343;BME280;49465;57.664;39.686;2023-04-27T13:09:56;99880.28;;;29.93;29.90
63343;BME280;49465;57.664;39.686;2023-04-27T13:12:23;99882.28;;;29.98;29.28
63343;BME280;49465;57.664;39.686;2023-04-27T13:14:50;99879.81;;;29.84;28.33
63343;BME280;49465;57.664;39.686;2023-04-27T13:17:16;99887.09;;;29.84;29.38
63343;BME280;49465;57.664;39.686;2023-04-27T13:19:43;99885.44;;;29.83;29.10
63343;BME280;49465;57.664;39.686;2023-04-27T13:22:09;99885.81;;;29.86;28.86
63343;BME280;49465;57.664;39.686;2023-04-27T13:24:36;99889.31;;;29.87;28.76
63343;BME280;49465;57.664;39.686;2023-04-27T13:27:05;99890.84;;;29.94;30.01
63343;BME280;49465;57.664;39.686;2023-04-27T13:29:31;99896.84;;;29.85;29.58
63343;BME280;49465;57.664;39.686;2023-04-27T13:31:57;99886.63;;;29.87;29.77
63343;BME280;49465;57.664;39.686;2023-04-27T13:34:27;99890.97;;;30.00;30.21
63343;BME280;49465;57.664;39.686;2023-04-27T13:36:53;99892.84;;;29.87;29.33
63343;BME280;49465;57.664;39.686;2023-04-27T13:39:20;99888.75;;;29.85;29.98
63343;BME280;49465;57.664;39.686;2023-04-27T13:41:47;99890.75;;;29.89;28.82
63343;BME280;49465;57.664;39.686;2023-04-27T13:44:13;99890.41;;;29.86;29.06
63343;BME280;49465;57.664;39.686;2023-04-27T13:46:40;99897.19;;;29.88;29.07
63343;BME280;49465;57.664;39.686;2023-04-27T13:49:06;99895.44;;;29.94;29.19
63343;BME280;49465;57.664;39.686;2023-04-27T13:51:35;99893.91;;;29.98;29.63
63343;BME280;49465;57.664;39.686;2023-04-27T13:54:01;99890.25;;;30.04;29.50
63343;BME280;49465;57.664;39.686;2023-04-27T13:56:30;99896.00;;;30.08;29.57
63343;BME280;49465;57.664;39.686;2023-04-27T13:58:57;99894.13;;;29.96;28.88
63343;BME280;49465;57.664;39.686;2023-04-27T14:01:32;99898.72;;;30.08;29.80
63343;BME280;49465;57.664;39.686;2023-04-27T14:04:01;99897.53;;;30.04;29.85
63343;BME280;49465;57.664;39.686;2023-04-27T14:06:28;99890.81;;;29.71;29.64
63343;BME280;49465;57.664;39.686;2023-04-27T14:08:54;99901.84;;;29.69;29.44
63343;BME280;49465;57.664;39.686;2023-04-27T14:11:23;99898.69;;;29.61;29.63
63343;BME280;49465;57.664;39.686;2023-04-27T14:13:50;99906.22;;;29.58;29.75
63343;BME280;49465;57.664;39.686;2023-04-27T14:16:16;99897.28;;;29.46;29.47
63343;BME280;49465;57.664;39.686;2023-04-27T14:18:43;99900.44;;;29.43;29.55
63343;BME280;49465;57.664;39.686;2023-04-27T14:21:09;99907.22;;;29.34;29.84
63343;BME280;49465;57.664;39.686;2023-04-27T14:23:36;99905.88;;;29.13;29.61
63343;BME280;49465;57.664;39.686;2023-04-27T14:26:05;99898.75;;;29.00;30.05
63343;BME280;49465;57.664;39.686;2023-04-27T14:28:34;99902.81;;;28.91;30.26
63343;BME280;49465;57.664;39.686;2023-04-27T14:31:00;99904.13;;;28.88;30.06
63343;BME280;49465;57.664;39.686;2023-04-27T14:33:30;99908.16;;;28.79;29.90
63343;BME280;49465;57.664;39.686;2023-04-27T14:35:56;99900.03;;;28.67;30.04
63343;BME280;49465;57.664;39.686;2023-04-27T14:38:22;99901.22;;;28.71;30.18
63343;BME280;49465;57.664;39.686;2023-04-27T14:40:49;99909.31;;;28.71;30.22
63343;BME280;49465;57.664;39.686;2023-04-27T14:43:15;99906.38;;;28.73;30.32
63343;BME280;49465;57.664;39.686;2023-04-27T14:45:43;99912.84;;;28.72;30.20
63343;BME280;49465;57.664;39.686;2023-04-27T14:48:10;99911.56;;;28.74;30.40
63343;BME280;49465;57.664;39.686;2023-04-27T14:50:39;99917.91;;;28.80;30.00
63343;BME280;49465;57.664;39.686;2023-04-27T14:53:06;99914.09;;;28.69;29.97
63343;BME280;49465;57.664;39.686;2023-04-27T14:55:32;99914.19;;;28.63;29.88
63343;BME280;49465;57.664;39.686;2023-04-27T14:57:58;99906.69;;;28.65;30.21
63343;BME280;49465;57.664;39.686;2023-04-27T15:00:27;99910.44;;;28.64;29.98
63343;BME280;49465;57.664;39.686;2023-04-27T15:02:53;99913.97;;;28.64;30.61
63343;BME280;49465;57.664;39.686;2023-04-27T15:05:23;99905.03;;;28.64;30.22
63343;BME280;49465;57.664;39.686;2023-04-27T15:07:52;99909.13;;;28.54;30.80
63343;BME280;49465;57.664;39.686;2023-04-27T15:10:25;99910.44;;;28.64;30.93
63343;BME280;49465;57.664;39.686;2023-04-27T15:13:06;99909.03;;;28.61;30.57
63343;BME280;49465;57.664;39.686;2023-04-27T15:15:34;99914.78;;;28.46;31.23
63343;BME280;49465;57.664;39.686;2023-04-27T15:18:15;99924.22;;;28.55;31.05
63343;BME280;49465;57.664;39.686;2023-04-27T15:20:52;99924.38;;;28.61;31.14
63343;BME280;49465;57.664;39.686;2023-04-27T15:23:29;99920.13;;;28.53;30.75
63343;BME280;49465;57.664;39.686;2023-04-27T15:26:00;99921.31;;;28.38;31.13
63343;BME280;49465;57.664;39.686;2023-04-27T15:28:35;99922.81;;;28.53;31.28
63343;BME280;49465;57.664;39.686;2023-04-27T15:31:09;99927.63;;;28.51;30.90
63343;BME280;49465;57.664;39.686;2023-04-27T15:33:38;99927.72;;;28.37;31.68
63343;BME280;49465;57.664;39.686;2023-04-27T15:36:04;99927.56;;;28.32;31.41
63343;BME280;49465;57.664;39.686;2023-04-27T15:38:36;99931.03;;;28.39;30.99
63343;BME280;49465;57.664;39.686;2023-04-27T15:41:16;99927.72;;;28.37;31.06
63343;BME280;49465;57.664;39.686;2023-04-27T15:43:50;99931.31;;;28.31;30.99
63343;BME280;49465;57.664;39.686;2023-04-27T15:46:26;99939.31;;;28.19;30.95
63343;BME280;49465;57.664;39.686;2023-04-27T15:48:55;99931.31;;;28.13;31.29
63343;BME280;49465;57.664;39.686;2023-04-27T15:51:25;99941.75;;;28.03;30.72